Time;durP1;ratioP1;P1;durP2;ratioP2;P2;SDS_P1;SDS_P2;PMS_P1;PMS_P2;Temp;Humidity;BMP_temperature;BMP_pressure;BME280_temperature;BME280_humidity;BME280_pressure;Samples;Min_cycle;Max_cycle;Signal;HPM_P1;HPM_P2
2022/05/21 00:00:22;;;;;;;10.13;6.17;;;18.90;99.90;;;;;;5031786;28;20235;-82
2022/05/21 00:02:49;;;;;;;10.23;6.80;;;18.90;99.90;;;;;;5031932;28;20206;-80
2022/05/21 00:05:18;;;;;;;9.73;6.40;;;18.90;99.90;;;;;;5031499;28;20225;-81
2022/05/21 00:07:45;;;;;;;12.20;6.27;;;18.90;99.90;;;;;;5032831;28;20225;-77
2022/05/21 00:10:14;;;;;;;9.03;5.73;;;19.00;99.90;;;;;;5041517;28;20673;-77
2022/05/21 00:12:42;;;;;;;9.43;6.20;;;19.00;99.90;;;;;;5031293;28;20662;-77
2022/05/21 00:15:12;;;;;;;14.87;6.97;;;19.00;99.90;;;;;;5031630;28;20649;-80
2022/05/21 00:17:39;;;;;;;13.77;6.97;;;18.90;99.90;;;;;;5031473;28;20231;-79
2022/05/21 00:20:46;;;;;;;8.07;6.20;;;18.90;99.90;;;;;;5031544;28;20298;-79
2022/05/21 00:22:54;;;;;;;8.33;6.00;;;18.90;99.90;;;;;;5031092;28;20207;-80
2022/05/21 00:25:22;;;;;;;9.73;6.13;;;18.80;99.90;;;;;;5031190;28;20290;-81
2022/05/21 00:27:49;;;;;;;11.03;6.70;;;18.80;99.90;;;;;;5031376;28;20294;-80
2022/05/21 00:30:16;;;;;;;9.13;6.17;;;18.80;99.90;;;;;;5032541;28;20271;-70
2022/05/21 00:32:43;;;;;;;12.10;6.50;;;18.80;99.90;;;;;;5030674;28;20209;-82
2022/05/21 00:35:10;;;;;;;12.07;6.60;;;18.80;99.90;;;;;;5031056;28;20286;-78
2022/05/21 00:37:37;;;;;;;11.03;7.20;;;18.70;99.90;;;;;;5032764;28;20298;-80
2022/05/21 00:40:04;;;;;;;9.77;6.87;;;18.70;99.90;;;;;;5031199;28;20234;-79
2022/05/21 00:42:31;;;;;;;10.13;7.03;;;18.60;99.90;;;;;;5031689;28;20195;-79
2022/05/21 00:44:59;;;;;;;17.13;8.23;;;18.50;99.90;;;;;;5031439;28;20282;-80
2022/05/21 00:47:26;;;;;;;10.37;7.33;;;18.50;99.90;;;;;;5032116;28;20310;-79
2022/05/21 00:49:53;;;;;;;13.17;8.30;;;18.20;99.90;;;;;;5014767;28;20200;-77
2022/05/21 00:52:24;;;;;;;15.80;9.67;;;17.90;99.90;;;;;;5030817;28;20290;-79
2022/05/21 00:54:58;;;;;;;18.73;9.73;;;17.40;99.90;;;;;;5031285;28;20290;-74
2022/05/21 00:57:45;;;;;;;17.50;10.30;;;16.90;99.90;;;;;;5031053;28;20203;-73
2022/05/21 01:00:17;;;;;;;15.57;10.83;;;16.60;99.90;;;;;;5031006;28;20745;-73
2022/05/21 01:02:49;;;;;;;18.27;11.63;;;16.20;99.90;;;;;;5030742;28;20634;-73
2022/05/21 01:05:20;;;;;;;15.87;11.40;;;16.00;99.90;;;;;;5032086;28;20194;-71
2022/05/21 01:07:50;;;;;;;16.07;12.30;;;15.90;99.90;;;;;;5030892;28;20200;-70
2022/05/21 01:10:20;;;;;;;16.43;12.17;;;15.90;99.90;;;;;;5031281;28;20195;-73
2022/05/21 01:12:51;;;;;;;17.50;12.70;;;15.80;99.90;;;;;;5030749;28;20250;-72
2022/05/21 01:15:22;;;;;;;17.27;12.30;;;15.70;99.90;;;;;;5030777;28;20748;-67
2022/05/21 01:17:49;;;;;;;21.67;13.93;;;15.70;99.90;;;;;;5032332;28;20204;-67
2022/05/21 01:20:20;;;;;;;21.53;14.10;;;15.70;99.90;;;;;;5032212;28;20196;-72
2022/05/21 01:22:52;;;;;;;22.10;14.73;;;15.70;99.90;;;;;;5031119;28;20646;-66
2022/05/21 01:25:24;;;;;;;20.87;14.23;;;15.70;99.90;;;;;;5030525;28;20273;-66
2022/05/21 01:27:55;;;;;;;22.37;14.50;;;15.70;99.90;;;;;;5030805;28;20298;-71
2022/05/21 01:30:27;;;;;;;20.23;14.30;;;15.80;99.90;;;;;;5030656;28;20195;-72
2022/05/21 01:32:54;;;;;;;19.13;14.37;;;15.70;99.90;;;;;;5030930;28;20192;-72
2022/05/21 01:35:21;;;;;;;21.13;15.03;;;15.80;99.90;;;;;;5030805;28;20231;-72
2022/05/21 01:37:48;;;;;;;22.87;15.00;;;15.70;99.90;;;;;;5030552;28;20227;-69
2022/05/21 01:40:17;;;;;;;20.90;15.07;;;15.70;99.90;;;;;;5030943;28;20558;-73
2022/05/21 01:44:37;;;;;;;20.50;14.53;;;15.70;99.90;;;;;;5030482;28;20207;-72
2022/05/21 01:45:31;;;;;;;22.97;15.47;;;15.70;99.90;;;;;;5034474;28;20645;-73
2022/05/21 01:47:58;;;;;;;23.87;15.90;;;15.70;99.90;;;;;;5034501;28;20210;-72
2022/05/21 01:50:25;;;;;;;18.97;14.90;;;15.70;99.90;;;;;;5035341;28;20195;-72
2022/05/21 01:52:52;;;;;;;21.30;14.90;;;15.50;99.90;;;;;;5034104;28;20234;-73
2022/05/21 01:55:19;;;;;;;21.50;15.10;;;15.50;99.90;;;;;;5034980;28;20203;-71
2022/05/21 01:57:46;;;;;;;21.60;14.90;;;15.50;99.90;;;;;;5034550;28;20291;-73
2022/05/21 02:00:14;;;;;;;18.60;14.70;;;15.70;99.90;;;;;;5033965;28;20262;-74
2022/05/21 02:02:41;;;;;;;21.20;14.87;;;15.70;99.90;;;;;;5034239;28;20196;-73
2022/05/21 02:05:09;;;;;;;21.77;14.27;;;15.70;99.90;;;;;;5033904;28;20672;-73
2022/05/21 02:07:35;;;;;;;21.60;15.03;;;15.80;99.90;;;;;;5042247;28;20293;-72
2022/05/21 02:10:04;;;;;;;23.80;15.07;;;15.80;99.90;;;;;;5037346;28;20195;-73
2022/05/21 02:12:32;;;;;;;21.27;15.30;;;15.80;99.90;;;;;;5033611;28;20258;-73
2022/05/21 02:14:59;;;;;;;21.93;15.03;;;15.80;99.90;;;;;;5033886;28;20203;-73
2022/05/21 02:17:26;;;;;;;26.43;16.00;;;15.80;99.90;;;;;;5033627;28;20207;-72
2022/05/21 02:19:53;;;;;;;23.20;15.50;;;15.80;99.90;;;;;;5033719;28;20667;-73
2022/05/21 02:22:20;;;;;;;22.43;15.60;;;15.80;99.90;;;;;;5033549;28;20204;-72
2022/05/21 02:24:47;;;;;;;19.37;14.50;;;15.80;99.90;;;;;;5033524;28;20202;-73
2022/05/21 02:27:14;;;;;;;21.77;15.27;;;15.80;99.90;;;;;;5033295;28;20227;-73
2022/05/21 02:29:42;;;;;;;21.70;15.37;;;15.90;99.90;;;;;;5033537;28;20287;-73
2022/05/21 02:32:11;;;;;;;21.23;15.63;;;15.90;99.90;;;;;;5033689;28;20199;-74
2022/05/21 02:34:37;;;;;;;23.20;16.33;;;15.90;99.90;;;;;;5033358;28;20218;-73
2022/05/21 02:39:51;;;;;;;20.90;15.60;;;15.90;99.90;;;;;;5033432;28;20206;-73
2022/05/21 02:45:05;;;;;;;23.20;16.43;;;15.90;99.90;;;;;;5033130;28;20238;-72
2022/05/21 02:47:32;;;;;;;26.73;16.47;;;15.90;99.90;;;;;;5033011;28;20226;-71
2022/05/21 02:49:59;;;;;;;23.50;17.23;;;15.90;99.90;;;;;;5032996;28;20205;-73
2022/05/21 02:52:26;;;;;;;20.90;15.77;;;15.90;99.90;;;;;;5033080;28;20234;-74
2022/05/21 02:54:53;;;;;;;27.10;17.03;;;15.90;99.90;;;;;;5031739;28;20195;-70
2022/05/21 02:57:19;;;;;;;23.27;16.40;;;15.90;99.90;;;;;;5033269;28;20200;-69
2022/05/21 02:59:50;;;;;;;24.17;17.00;;;15.80;99.90;;;;;;5032821;28;20664;-71
2022/05/21 03:02:21;;;;;;;22.80;16.00;;;15.80;99.90;;;;;;5033095;28;20346;-74
2022/05/21 03:04:48;;;;;;;27.50;17.93;;;15.80;99.90;;;;;;5032672;28;20664;-74
2022/05/21 03:07:15;;;;;;;29.67;18.17;;;15.90;99.90;;;;;;5032917;28;20235;-68
2022/05/21 03:12:27;;;;;;;22.67;17.47;;;15.90;99.90;;;;;;5032507;28;20200;-73
2022/05/21 03:14:54;;;;;;;22.23;17.17;;;15.90;99.90;;;;;;5032483;28;20608;-73
2022/05/21 03:17:20;;;;;;;26.40;18.47;;;15.90;99.90;;;;;;5034025;28;20286;-74
2022/05/21 03:19:47;;;;;;;36.23;20.47;;;16.00;99.90;;;;;;5033918;28;20192;-72
2022/05/21 03:22:14;;;;;;;27.00;19.37;;;15.80;99.90;;;;;;5032530;28;20210;-73
2022/05/21 03:24:41;;;;;;;29.93;20.23;;;15.80;99.90;;;;;;5032474;28;20282;-76
2022/05/21 03:27:08;;;;;;;25.17;18.93;;;15.80;99.90;;;;;;5032213;28;20726;-70
2022/05/21 03:29:35;;;;;;;29.83;20.60;;;15.80;99.90;;;;;;5032305;28;20290;-72
2022/05/21 03:32:02;;;;;;;31.67;21.30;;;15.70;99.90;;;;;;5032400;28;20292;-72
2022/05/21 03:34:29;;;;;;;32.03;20.73;;;15.70;99.90;;;;;;5032344;28;20841;-72
2022/05/21 03:36:56;;;;;;;29.13;21.23;;;15.80;99.90;;;;;;5033510;28;20215;-71
2022/05/21 03:39:23;;;;;;;30.47;21.23;;;15.70;99.90;;;;;;5031937;28;20748;-69
2022/05/21 03:41:50;;;;;;;33.23;22.53;;;15.70;99.90;;;;;;5032291;28;20678;-69
2022/05/21 03:44:17;;;;;;;27.63;20.63;;;15.80;99.90;;;;;;5031884;28;20235;-71
2022/05/21 03:46:43;;;;;;;28.50;20.17;;;15.80;99.90;;;;;;5031958;28;20242;-68
2022/05/21 03:49:11;;;;;;;27.27;19.27;;;15.80;99.90;;;;;;5031639;28;20290;-71
2022/05/21 03:51:38;;;;;;;30.30;19.10;;;15.90;99.90;;;;;;5031672;28;20302;-71
2022/05/21 03:54:05;;;;;;;26.43;18.67;;;15.80;99.90;;;;;;5031870;28;20199;-64
2022/05/21 03:56:32;;;;;;;23.70;17.53;;;15.70;99.90;;;;;;5031854;28;20249;-65
2022/05/21 03:58:59;;;;;;;31.83;19.37;;;15.80;99.90;;;;;;5031747;28;20226;-64
2022/05/21 04:01:25;;;;;;;23.27;18.07;;;15.80;99.90;;;;;;5032857;28;20266;-71
2022/05/21 04:03:54;;;;;;;24.10;17.57;;;15.80;99.90;;;;;;5032081;28;20261;-69
2022/05/21 04:06:22;;;;;;;25.77;17.60;;;15.70;99.90;;;;;;5031307;28;20248;-65
2022/05/21 04:08:52;;;;;;;24.77;19.63;;;15.70;99.90;;;;;;5033178;28;20230;-64
2022/05/21 04:11:19;;;;;;;26.30;18.93;;;15.70;99.90;;;;;;5031726;28;20290;-66
2022/05/21 04:13:46;;;;;;;27.23;19.50;;;15.80;99.90;;;;;;5032444;28;20262;-71
2022/05/21 04:16:12;;;;;;;26.77;19.87;;;15.90;99.90;;;;;;5031801;28;20302;-71
2022/05/21 04:18:39;;;;;;;33.33;20.47;;;15.90;99.90;;;;;;5031360;28;20562;-72
2022/05/21 04:21:06;;;;;;;26.90;18.80;;;15.90;99.90;;;;;;5031425;28;20565;-71
2022/05/21 04:23:33;;;;;;;25.93;18.73;;;15.90;99.90;;;;;;5031261;28;20298;-71
2022/05/21 04:26:00;;;;;;;24.47;17.90;;;15.90;99.90;;;;;;5031363;28;20196;-71
2022/05/21 04:28:27;;;;;;;26.63;18.77;;;16.00;99.90;;;;;;5031124;28;20223;-65
2022/05/21 04:30:53;;;;;;;21.90;17.27;;;16.00;99.90;;;;;;5031320;28;20217;-65
2022/05/21 04:33:20;;;;;;;23.57;18.30;;;16.10;99.90;;;;;;5031640;28;20213;-71
2022/05/21 04:38:33;;;;;;;21.33;16.07;;;15.90;99.90;;;;;;5031312;28;20716;-71
2022/05/21 04:41:01;;;;;;;22.33;16.20;;;15.90;99.90;;;;;;5031371;28;20676;-71
2022/05/21 04:43:28;;;;;;;22.60;16.63;;;15.90;99.90;;;;;;5031086;28;20290;-71
2022/05/21 04:46:00;;;;;;;23.33;16.50;;;15.90;99.90;;;;;;5031158;28;20645;-70
2022/05/21 04:48:27;;;;;;;21.93;16.50;;;15.80;99.90;;;;;;5030685;28;20227;-71
2022/05/21 04:50:59;;;;;;;22.93;18.00;;;15.90;99.90;;;;;;5031276;28;20200;-71
2022/05/21 04:53:26;;;;;;;25.70;18.97;;;15.90;99.90;;;;;;5030818;28;20202;-70
2022/05/21 04:55:54;;;;;;;25.23;19.83;;;15.80;99.90;;;;;;5031099;28;20290;-68
2022/05/21 04:58:20;;;;;;;28.73;20.67;;;15.80;99.90;;;;;;5031100;28;20720;-70
2022/05/21 05:00:47;;;;;;;28.27;20.27;;;15.90;99.90;;;;;;5030990;28;20206;-67
2022/05/21 05:03:16;;;;;;;27.57;19.90;;;15.90;99.90;;;;;;5030899;28;20290;-67
2022/05/21 05:05:44;;;;;;;27.27;19.87;;;16.00;99.90;;;;;;5030776;28;20203;-71
2022/05/21 05:08:12;;;;;;;24.53;18.67;;;16.00;99.90;;;;;;5030951;28;20314;-71
2022/05/21 05:10:39;;;;;;;23.27;17.37;;;16.00;99.90;;;;;;5030588;28;20667;-65
2022/05/21 05:13:06;;;;;;;23.17;18.03;;;16.10;99.90;;;;;;5031202;28;20598;-64
2022/05/21 05:15:33;;;;;;;22.90;17.00;;;16.00;99.90;;;;;;5030588;28;20673;-65
2022/05/21 05:18:01;;;;;;;23.50;17.67;;;15.90;99.90;;;;;;5032567;28;20249;-65
2022/05/21 05:20:28;;;;;;;25.00;17.87;;;15.90;99.90;;;;;;5034441;28;20290;-66
2022/05/21 05:22:55;;;;;;;22.47;17.50;;;15.90;99.90;;;;;;5034745;28;20290;-65
2022/05/21 05:25:22;;;;;;;26.53;18.87;;;15.90;99.90;;;;;;5018174;28;20378;-65
2022/05/21 05:27:50;;;;;;;23.03;18.00;;;15.80;99.90;;;;;;5034420;28;20718;-70
2022/05/21 05:30:19;;;;;;;25.67;17.93;;;15.90;99.90;;;;;;5036155;28;20195;-71
2022/05/21 05:32:46;;;;;;;23.07;18.73;;;15.90;99.90;;;;;;5034344;28;20230;-66
2022/05/21 05:35:14;;;;;;;23.57;17.80;;;15.90;99.90;;;;;;5034276;28;20640;-66
2022/05/21 05:37:45;;;;;;;21.73;17.23;;;15.80;99.90;;;;;;5034304;28;20231;-70
2022/05/21 05:40:19;;;;;;;20.17;15.03;;;15.90;99.90;;;;;;5035448;28;20203;-68
2022/05/21 05:42:49;;;;;;;21.53;15.33;;;15.80;99.90;;;;;;5035941;28;20207;-75
2022/05/21 05:45:16;;;;;;;20.43;15.17;;;15.90;99.90;;;;;;5034032;28;20210;-66
2022/05/21 05:47:43;;;;;;;21.63;15.00;;;15.90;99.90;;;;;;5035624;28;20688;-74
2022/05/21 05:50:10;;;;;;;18.47;14.43;;;15.90;99.90;;;;;;5034092;28;20290;-75
2022/05/21 05:52:37;;;;;;;19.53;15.30;;;15.90;99.90;;;;;;5034113;28;20294;-74
2022/05/21 05:55:05;;;;;;;21.20;16.10;;;15.80;99.90;;;;;;5017477;28;20191;-73
2022/05/21 05:57:32;;;;;;;20.70;15.53;;;15.80;99.90;;;;;;5034125;28;20203;-66
2022/05/21 05:59:58;;;;;;;21.10;15.70;;;15.80;99.90;;;;;;5034122;28;20254;-68
2022/05/21 06:05:17;;;;;;;24.43;15.97;;;15.90;99.90;;;;;;5033878;28;20266;-70
2022/05/21 06:07:50;;;;;;;22.00;16.47;;;16.00;99.90;;;;;;5034970;28;20281;-69
2022/05/21 06:10:24;;;;;;;19.97;14.43;;;16.00;99.90;;;;;;5034004;28;20207;-71
2022/05/21 06:12:50;;;;;;;23.47;16.87;;;16.00;99.90;;;;;;5033597;28;20254;-70
2022/05/21 06:15:18;;;;;;;20.20;15.37;;;16.00;99.90;;;;;;5033565;28;20203;-72
2022/05/21 06:17:45;;;;;;;20.17;14.97;;;15.90;99.90;;;;;;5033583;28;20198;-68
2022/05/21 06:20:14;;;;;;;20.27;15.40;;;15.90;99.90;;;;;;5033341;28;20211;-66
2022/05/21 06:22:42;;;;;;;18.83;15.10;;;15.90;99.90;;;;;;5033797;28;20299;-69
2022/05/21 06:25:10;;;;;;;18.50;14.03;;;16.00;99.90;;;;;;5033526;28;20638;-68
2022/05/21 06:27:37;;;;;;;18.37;14.27;;;16.10;99.90;;;;;;5033263;28;20225;-68
2022/05/21 06:30:04;;;;;;;16.97;13.07;;;16.20;99.90;;;;;;5033563;28;20230;-63
2022/05/21 06:32:31;;;;;;;16.67;11.83;;;16.30;99.90;;;;;;5033190;28;20672;-69
2022/05/21 06:35:01;;;;;;;16.90;12.43;;;16.30;99.90;;;;;;5033547;28;20199;-67
2022/05/21 06:37:28;;;;;;;16.67;12.97;;;16.40;99.90;;;;;;5033452;28;20238;-65
2022/05/21 06:39:55;;;;;;;15.73;12.23;;;16.60;99.90;;;;;;5033397;28;20241;-71
2022/05/21 06:42:22;;;;;;;16.27;11.50;;;16.70;99.90;;;;;;5033108;28;20290;-68
2022/05/21 06:44:50;;;;;;;13.47;9.80;;;16.90;99.90;;;;;;5032879;28;20286;-69
2022/05/21 06:47:17;;;;;;;10.83;8.20;;;17.10;99.90;;;;;;5034253;28;21238;-69
2022/05/21 06:49:44;;;;;;;10.53;7.90;;;17.00;99.90;;;;;;5033065;28;20199;-68
2022/05/21 06:52:11;;;;;;;10.47;8.20;;;16.90;99.90;;;;;;5033564;28;20294;-70
2022/05/21 06:54:38;;;;;;;10.00;5.90;;;16.80;99.90;;;;;;5032608;28;20642;-70
2022/05/21 06:57:10;;;;;;;5.43;4.40;;;16.60;99.90;;;;;;5033018;28;20567;-65
2022/05/21 06:59:37;;;;;;;7.90;5.10;;;16.50;99.90;;;;;;5032516;28;20310;-66
2022/05/21 07:02:04;;;;;;;5.67;4.20;;;16.40;99.90;;;;;;5032811;28;20294;-70
2022/05/21 07:07:35;;;;;;;7.20;4.30;;;16.40;99.90;;;;;;5033933;28;20239;-69
2022/05/21 07:10:09;;;;;;;3.30;3.00;;;16.50;99.90;;;;;;5032547;28;20227;-72
2022/05/21 07:12:36;;;;;;;5.17;3.60;;;16.50;99.90;;;;;;5033738;28;20215;-71
2022/05/21 07:15:05;;;;;;;9.40;3.13;;;16.60;99.90;;;;;;5032272;28;20203;-73
2022/05/21 07:17:32;;;;;;;8.50;2.90;;;16.80;99.90;;;;;;5032824;28;20286;-68
2022/05/21 07:20:02;;;;;;;3.03;2.07;;;16.90;99.90;;;;;;5032382;28;20203;-69
2022/05/21 07:22:29;;;;;;;3.80;2.13;;;16.80;99.90;;;;;;5032653;28;20645;-68
2022/05/21 07:24:56;;;;;;;2.30;2.00;;;16.70;99.90;;;;;;5032207;28;20242;-68
2022/05/21 07:27:23;;;;;;;4.50;2.07;;;16.60;99.90;;;;;;5032154;28;20314;-65
2022/05/21 07:29:50;;;;;;;3.30;1.53;;;16.50;99.90;;;;;;5032563;28;20237;-70
2022/05/21 07:32:20;;;;;;;3.30;1.70;;;16.40;99.90;;;;;;5032098;28;20199;-74
2022/05/21 07:34:48;;;;;;;2.00;1.57;;;16.50;99.90;;;;;;5032026;28;20219;-71
2022/05/21 07:37:14;;;;;;;12.37;2.10;;;16.50;99.90;;;;;;5031996;28;20204;-74
2022/05/21 07:39:41;;;;;;;1.80;1.30;;;16.50;99.90;;;;;;5032220;28;20192;-71
2022/05/21 07:42:08;;;;;;;4.63;1.60;;;16.50;99.90;;;;;;5031480;28;20213;-75
2022/05/21 07:44:35;;;;;;;2.03;1.20;;;16.40;99.90;;;;;;5032108;28;20205;-73
2022/05/21 07:47:02;;;;;;;5.20;1.73;;;16.30;99.90;;;;;;5032279;28;20200;-76
2022/05/21 07:49:29;;;;;;;4.47;1.50;;;16.30;99.90;;;;;;5031718;28;20706;-70
2022/05/21 07:51:58;;;;;;;6.60;1.60;;;16.20;99.90;;;;;;5032063;28;20731;-73
2022/05/21 07:54:26;;;;;;;7.23;1.50;;;16.20;99.90;;;;;;5031564;28;20693;-66
2022/05/21 07:56:53;;;;;;;3.57;1.50;;;16.10;99.90;;;;;;5031917;28;20208;-67
2022/05/21 07:59:20;;;;;;;3.97;1.20;;;15.90;99.90;;;;;;5031778;28;20254;-69
2022/05/21 08:01:47;;;;;;;2.40;1.23;;;15.80;99.90;;;;;;5031777;28;20226;-75
2022/05/21 08:04:17;;;;;;;4.20;1.20;;;15.80;99.90;;;;;;5031632;28;20210;-73
2022/05/21 08:06:43;;;;;;;3.17;1.30;;;15.70;99.90;;;;;;5031431;28;20202;-68
2022/05/21 08:09:10;;;;;;;5.93;1.57;;;15.70;99.90;;;;;;5031426;28;20243;-76
2022/05/21 08:11:37;;;;;;;3.43;1.30;;;15.70;99.90;;;;;;5031503;28;20228;-70
2022/05/21 08:14:05;;;;;;;3.10;1.33;;;15.70;99.90;;;;;;5031442;28;20310;-66
2022/05/21 08:16:32;;;;;;;5.43;1.00;;;15.70;99.90;;;;;;5031317;28;20648;-75
2022/05/21 08:19:01;;;;;;;2.77;1.03;;;15.70;99.90;;;;;;5031540;28;20207;-69
2022/05/21 08:21:28;;;;;;;4.70;1.10;;;15.70;99.90;;;;;;5031295;28;20533;-70
2022/05/21 08:27:00;;;;;;;2.00;1.10;;;15.60;99.90;;;;;;5032840;28;20218;-69
2022/05/21 08:29:33;;;;;;;4.43;1.10;;;15.60;99.90;;;;;;5031234;28;20274;-78
2022/05/21 08:32:01;;;;;;;2.40;1.07;;;15.50;99.90;;;;;;5031300;28;20546;-80
2022/05/21 08:34:28;;;;;;;4.50;1.50;;;15.60;99.90;;;;;;5014981;28;20196;-67
2022/05/21 08:36:55;;;;;;;3.27;1.60;;;15.60;99.90;;;;;;5031199;28;20290;-81
2022/05/21 08:39:23;;;;;;;6.10;1.40;;;15.60;99.90;;;;;;5032687;28;20219;-75
2022/05/21 08:41:56;;;;;;;5.40;1.27;;;15.60;99.90;;;;;;5014931;28;20293;-81
2022/05/21 08:44:43;;;;;;;4.47;1.33;;;15.60;99.90;;;;;;5031357;28;20199;-71
2022/05/21 08:47:18;;;;;;;2.80;1.20;;;15.60;99.90;;;;;;5031179;28;20195;-79
2022/05/21 08:49:56;;;;;;;4.03;1.20;;;15.60;99.90;;;;;;5030731;28;20307;-77
2022/05/21 08:52:52;;;;;;;2.83;1.40;;;15.80;99.90;;;;;;5031224;28;20294;-79
2022/05/21 08:55:24;;;;;;;2.50;1.10;;;16.00;99.90;;;;;;5035139;28;20293;-82
2022/05/21 08:57:56;;;;;;;5.60;1.27;;;16.20;99.90;;;;;;5035203;28;20712;-81
2022/05/21 09:00:24;;;;;;;4.70;1.30;;;16.30;99.90;;;;;;5036368;28;20235;-82
2022/05/21 09:02:54;;;;;;;2.37;1.10;;;16.30;99.90;;;;;;5035183;28;20246;-74
2022/05/21 09:05:22;;;;;;;3.00;1.70;;;16.60;99.90;;;;;;5034862;28;20214;-71
2022/05/21 09:08:09;;;;;;;1.00;0.90;;;17.00;99.90;;;;;;5035096;28;20254;-74
2022/05/21 09:11:06;;;;;;;9.17;1.40;;;17.10;99.90;;;;;;5035499;28;20207;-77
2022/05/21 09:13:47;;;;;;;4.67;1.10;;;16.70;99.90;;;;;;5035625;28;20218;-79
2022/05/21 09:19:05;;;;;;;5.63;1.10;;;16.50;99.90;;;;;;5035309;28;20202;-71
2022/05/21 09:21:34;;;;;;;4.87;1.00;;;16.30;99.90;;;;;;5035146;28;20294;-81
2022/05/21 09:24:04;;;;;;;4.47;1.10;;;16.40;99.90;;;;;;5035892;28;20214;-85
2022/05/21 09:26:47;;;;;;;3.37;1.23;;;16.50;99.90;;;;;;5035170;28;20680;-76
2022/05/21 09:29:25;;;;;;;1.80;1.03;;;16.50;99.90;;;;;;5034886;28;20223;-82
2022/05/21 09:31:54;;;;;;;6.60;1.63;;;16.60;99.90;;;;;;5036621;28;20191;-82
2022/05/21 09:34:32;;;;;;;2.17;1.00;;;16.60;99.90;;;;;;5036840;28;20524;-73
2022/05/21 09:37:00;;;;;;;3.27;0.90;;;16.50;99.90;;;;;;5035954;28;20275;-76
2022/05/21 09:39:38;;;;;;;5.80;1.30;;;16.50;99.90;;;;;;5035126;28;20613;-74
2022/05/21 09:45:32;;;;;;;4.33;1.17;;;16.60;99.90;;;;;;5034337;28;20641;-71
2022/05/21 09:48:05;;;;;;;2.33;1.20;;;16.60;99.90;;;;;;5034086;28;20233;-71
2022/05/21 09:50:56;;;;;;;3.37;1.23;;;16.50;99.90;;;;;;5034272;28;20230;-69
2022/05/21 09:53:29;;;;;;;2.03;1.20;;;16.50;99.90;;;;;;5034306;28;20286;-78
2022/05/21 09:55:59;;;;;;;3.13;1.37;;;16.40;99.90;;;;;;5033975;28;20235;-69
2022/05/21 09:58:26;;;;;;;2.83;1.27;;;16.40;99.90;;;;;;5035420;28;20249;-82
2022/05/21 10:00:57;;;;;;;1.97;1.60;;;16.40;99.90;;;;;;5034962;28;20235;-77
2022/05/21 10:03:45;;;;;;;5.70;1.60;;;16.40;99.90;;;;;;5017629;28;20539;-84
2022/05/21 10:06:25;;;;;;;4.93;1.87;;;16.60;99.90;;;;;;5033818;28;20259;-83
2022/05/21 10:12:08;;;;;;;4.13;1.17;;;16.70;99.90;;;;;;5033555;28;20204;-80
2022/05/21 10:14:47;;;;;;;3.93;1.60;;;16.70;99.90;;;;;;5033548;28;20261;-77
2022/05/21 10:17:41;;;;;;;2.40;1.20;;;16.60;99.90;;;;;;5033617;28;20203;-78
2022/05/21 10:20:35;;;;;;;5.77;1.33;;;16.50;99.90;;;;;;5033602;28;20664;-69
2022/05/21 10:23:17;;;;;;;3.30;1.20;;;16.60;99.90;;;;;;5033841;28;20218;-81
2022/05/21 10:26:23;;;;;;;2.97;1.30;;;16.70;99.90;;;;;;5033058;28;20241;-83
2022/05/21 10:29:15;;;;;;;1.47;1.17;;;16.70;99.90;;;;;;5033424;28;20211;-80
2022/05/21 10:31:53;;;;;;;6.43;1.20;;;16.70;99.90;;;;;;5034661;28;20278;-77
2022/05/21 10:34:45;;;;;;;3.17;1.10;;;16.60;99.90;;;;;;5030420;28;20213;-80
2022/05/21 10:37:32;;;;;;;1.13;1.00;;;16.60;99.90;;;;;;5068521;28;20293;-81
2022/05/21 10:40:20;;;;;;;2.23;1.03;;;16.40;99.90;;;;;;5033714;28;20290;-74
2022/05/21 10:42:57;;;;;;;2.30;1.20;;;16.40;99.90;;;;;;5049705;28;20232;-72
2022/05/21 10:45:38;;;;;;;1.90;1.10;;;16.30;99.90;;;;;;5073014;28;20194;-74
2022/05/21 10:48:45;;;;;;;2.47;1.20;;;16.40;99.90;;;;;;5073268;28;20297;-76
2022/05/21 10:51:19;;;;;;;4.77;1.27;;;16.40;99.90;;;;;;5044365;28;20199;-79
2022/05/21 10:54:19;;;;;;;5.87;1.07;;;16.40;99.90;;;;;;5032163;28;20645;-67
2022/05/21 10:57:09;;;;;;;2.10;0.93;;;16.40;99.90;;;;;;5015435;28;20299;-80
2022/05/21 11:00:23;;;;;;;2.27;1.10;;;16.40;99.90;;;;;;5032466;28;20337;-82
2022/05/21 11:03:26;;;;;;;3.83;1.40;;;16.40;99.90;;;;;;4954055;29;20763;-81
2022/05/21 11:06:05;;;;;;;2.27;1.63;;;16.20;99.90;;;;;;4937980;29;20296;-79
2022/05/21 11:08:42;;;;;;;3.70;1.70;;;16.20;99.90;;;;;;4937970;29;20245;-76
2022/05/21 11:11:22;;;;;;;1.57;1.30;;;16.00;99.90;;;;;;4937794;29;20229;-80
2022/05/21 11:13:59;;;;;;;2.90;1.67;;;15.80;99.90;;;;;;4937736;29;20783;-75
2022/05/21 11:16:43;;;;;;;5.83;1.50;;;15.80;99.90;;;;;;4953126;28;20260;-82
2022/05/21 11:19:23;;;;;;;3.10;1.40;;;15.70;99.90;;;;;;4937499;29;20208;-69
2022/05/21 11:22:14;;;;;;;1.30;1.20;;;15.70;99.90;;;;;;4954064;29;20567;-78
2022/05/21 11:25:01;;;;;;;4.87;1.50;;;15.80;99.90;;;;;;4945531;29;20686;-67
2022/05/21 11:27:46;;;;;;;3.67;1.53;;;16.20;99.90;;;;;;4953236;28;20321;-80
2022/05/21 11:30:18;;;;;;;2.00;1.17;;;16.80;99.90;;;;;;4991754;28;20232;-77
2022/05/21 11:38:46;;;;;;;2.77;1.10;;;18.60;99.90;;;;;;5032666;28;20295;-68
2022/05/21 11:41:25;;;;;;;2.57;1.10;;;19.10;99.90;;;;;;5032023;28;20298;-68
2022/05/21 11:47:20;;;;;;;3.87;1.23;;;18.90;99.90;;;;;;5072030;28;20586;-76
2022/05/21 11:50:37;;;;;;;4.70;1.30;;;18.50;99.90;;;;;;5071630;28;20336;-78
2022/05/21 11:53:29;;;;;;;3.13;1.30;;;18.00;99.90;;;;;;5051141;28;20692;-75
2022/05/21 11:56:00;;;;;;;2.13;1.13;;;18.30;99.90;;;;;;5042956;28;20220;-73
2022/05/21 11:58:55;;;;;;;2.77;1.10;;;18.50;99.90;;;;;;5034248;28;20286;-78
2022/05/21 12:01:46;;;;;;;4.97;1.40;;;18.60;99.90;;;;;;5050653;28;20234;-71
2022/05/21 12:04:40;;;;;;;6.03;1.40;;;18.40;99.90;;;;;;4991401;28;20553;-78
2022/05/21 12:07:17;;;;;;;2.17;0.90;;;18.10;99.90;;;;;;4975490;28;20225;-77
2022/05/21 12:10:08;;;;;;;4.50;1.23;;;18.10;99.90;;;;;;4975026;28;20228;-77
2022/05/21 12:12:35;;;;;;;4.90;1.20;;;18.00;99.90;;;;;;4991331;28;20224;-66
2022/05/21 12:15:18;;;;;;;3.13;1.20;;;17.80;99.90;;;;;;4974645;28;20201;-70
2022/05/21 12:18:03;;;;;;;3.13;1.10;;;17.60;99.90;;;;;;4991479;28;20267;-82
2022/05/21 12:20:48;;;;;;;2.67;1.10;;;17.50;99.90;;;;;;4990975;28;20292;-79
2022/05/21 12:23:33;;;;;;;4.50;0.87;;;17.60;99.90;;;;;;4991138;28;20212;-83
2022/05/21 12:26:02;;;;;;;3.73;1.00;;;17.10;99.90;;;;;;4974872;28;20272;-81
2022/05/21 12:28:58;;;;;;;1.77;0.90;;;17.10;99.90;;;;;;5006356;28;20207;-69
2022/05/21 12:31:32;;;;;;;4.10;1.30;;;16.80;99.90;;;;;;5030250;28;20851;-82
2022/05/21 12:34:29;;;;;;;2.53;0.93;;;17.00;99.90;;;;;;5019483;28;20204;-73
2022/05/21 12:37:16;;;;;;;2.57;1.20;;;17.10;99.90;;;;;;5027385;28;20214;-90
2022/05/21 12:40:01;;;;;;;3.57;1.10;;;17.10;99.90;;;;;;5014254;28;20747;-72
2022/05/21 12:42:42;;;;;;;3.73;1.10;;;17.00;99.90;;;;;;5061635;28;20244;-75
2022/05/21 12:45:31;;;;;;;4.40;1.27;;;16.90;99.90;;;;;;5047567;28;20195;-83
2022/05/21 12:48:44;;;;;;;3.03;1.10;;;16.80;99.90;;;;;;5045979;28;20278;-83
2022/05/21 12:51:26;;;;;;;1.23;1.10;;;16.60;99.90;;;;;;4990298;28;20761;-72
2022/05/21 12:54:17;;;;;;;1.57;1.03;;;17.10;99.90;;;;;;4991915;28;20192;-71
2022/05/21 12:56:44;;;;;;;2.73;1.10;;;17.60;99.90;;;;;;5000496;28;20208;-81
2022/05/21 12:59:20;;;;;;;2.40;1.10;;;17.70;99.90;;;;;;4982499;28;20681;-75
2022/05/21 13:02:11;;;;;;;2.17;1.37;;;17.70;99.90;;;;;;4989460;28;20250;-78
2022/05/21 13:04:42;;;;;;;3.80;0.90;;;17.30;99.90;;;;;;4965620;28;20634;-77
2022/05/21 13:07:16;;;;;;;4.57;0.90;;;17.10;99.90;;;;;;4981886;28;20205;-80
2022/05/21 13:09:59;;;;;;;3.03;1.40;;;16.90;99.90;;;;;;4982446;28;20354;-70
2022/05/21 13:12:40;;;;;;;2.40;0.90;;;16.90;99.90;;;;;;4999969;28;20244;-72
2022/05/21 13:15:11;;;;;;;5.43;1.00;;;16.80;99.90;;;;;;4982247;28;20199;-75
2022/05/21 13:17:57;;;;;;;3.97;1.20;;;16.60;99.90;;;;;;4985864;28;20196;-76
2022/05/21 13:20:31;;;;;;;2.57;1.03;;;16.50;99.90;;;;;;4985304;28;20751;-70
2022/05/21 13:23:16;;;;;;;1.93;1.00;;;16.70;99.90;;;;;;4989775;28;20191;-77
2022/05/21 13:25:52;;;;;;;2.50;1.13;;;17.00;99.90;;;;;;5031182;28;20644;-73
2022/05/21 13:28:23;;;;;;;3.80;1.10;;;17.40;99.90;;;;;;5042642;28;20191;-71
2022/05/21 13:30:51;;;;;;;3.47;1.10;;;18.00;99.90;;;;;;5037540;28;20305;-73
2022/05/21 13:33:30;;;;;;;7.33;1.10;;;18.00;99.90;;;;;;5046205;28;20224;-70
2022/05/21 13:36:03;;;;;;;2.73;1.10;;;17.80;99.90;;;;;;5050546;28;20218;-74
2022/05/21 13:38:38;;;;;;;3.03;1.10;;;17.40;99.90;;;;;;5032886;28;20289;-77
2022/05/21 13:41:11;;;;;;;2.87;1.00;;;17.20;99.90;;;;;;5035255;28;20205;-72
2022/05/21 13:43:42;;;;;;;5.43;1.10;;;17.30;99.90;;;;;;5036087;28;20274;-74